Terminal Aerodrome Forecast
Issued by NWS Austin/San Antonio, TX

Home | Current Version | Previous Version | Text Only | Print | Product List | Glossary On
Versions: 1 2 3 4 5 6 7 8 9 10 11 12 13 14 15 16 17 18 19 20 21 22 23 24 25 26 27 28
007
FTUS44 KEWX 192106 AAD
TAFSAT
TAF AMD
KSAT 192106Z 1921/2024 00000KT 1 1/2SM -DZ BR OVC005
     FM200300 17004KT 1SM BR OVC003
     FM200600 22003KT 1/2SM FG OVC001
     FM201700 21008KT 6SM BR SCT008=

USA.gov is the U.S. government's official web portal to all federal, state and local government web resources and services.